Time;durP1;ratioP1;P1;durP2;ratioP2;P2;SDS_P1;SDS_P2;PMS_P1;PMS_P2;Temp;Humidity;BMP_temperature;BMP_pressure;BME280_temperature;BME280_humidity;BME280_pressure;Samples;Min_cycle;Max_cycle;Signal;HPM_P1;HPM_P2
2020/02/03 00:00:46;;;;;;;3.95;2.1;;;;;;;8.89;100;94988.06;;;;
2020/02/03 00:03:01;;;;;;;2.6;1.9;;;;;;;8.9;100;94993.86;;;;
2020/02/03 00:04:16;;;;;;;2.6;1.9;;;;;;;8.9;100;94993.86;;;;
2020/02/03 00:05:45;;;;;;;2.6;1.9;;;;;;;8.9;100;94993.86;;;;
2020/02/03 00:07:04;;;;;;;2.6;1.9;;;;;;;8.9;100;94993.86;;;;
2020/02/03 00:09:21;;;;;;;2.6;1.9;;;;;;;8.9;100;94993.86;;;;
2020/02/03 00:10:34;;;;;;;2.6;1.9;;;;;;;8.9;100;94993.86;;;;
2020/02/03 00:11:38;;;;;;;2.6;1.9;;;;;;;8.9;100;94993.86;;;;
2020/02/03 00:12:55;;;;;;;2.6;1.9;;;;;;;8.9;100;94993.86;;;;
2020/02/03 00:14:42;;;;;;;3.6;2.15;;;;;;;8.82;100;94996.36;;;;
2020/02/03 00:15:45;;;;;;;3.6;2.15;;;;;;;8.82;100;94996.36;;;;
2020/02/03 00:16:47;;;;;;;3.6;2.15;;;;;;;8.82;100;94996.36;;;;
2020/02/03 00:17:56;;;;;;;3.6;2.15;;;;;;;8.82;100;94996.36;;;;
2020/02/03 00:19:14;;;;;;;3.6;2.15;;;;;;;8.82;100;94996.36;;;;
2020/02/03 00:20:26;;;;;;;3.6;2.15;;;;;;;8.82;100;94996.36;;;;
2020/02/03 00:21:42;;;;;;;3.6;2.15;;;;;;;8.82;100;94996.36;;;;
2020/02/03 00:22:48;;;;;;;3.6;2.15;;;;;;;8.82;100;94996.36;;;;
2020/02/03 00:23:53;;;;;;;3.7;2.2;;;;;;;8.84;100;94983.08;;;;
2020/02/03 00:24:56;;;;;;;3.7;2.2;;;;;;;8.84;100;94983.08;;;;
2020/02/03 00:26:06;;;;;;;3.7;2.2;;;;;;;8.84;100;94983.08;;;;
2020/02/03 00:27:06;;;;;;;3.7;2.2;;;;;;;8.84;100;94983.08;;;;
2020/02/03 00:28:07;;;;;;;3.7;2.2;;;;;;;8.84;100;94983.08;;;;
2020/02/03 00:29:07;;;;;;;3.7;2.2;;;;;;;8.84;100;94983.08;;;;
2020/02/03 00:30:23;;;;;;;3.7;2.2;;;;;;;8.84;100;94983.08;;;;
2020/02/03 00:31:35;;;;;;;3.7;2.2;;;;;;;8.84;100;94983.08;;;;
2020/02/03 00:32:43;;;;;;;3.7;2.2;;;;;;;8.84;100;94983.08;;;;
2020/02/03 00:33:44;;;;;;;3.7;2.2;;;;;;;8.84;100;94983.08;;;;
2020/02/03 00:34:44;;;;;;;2.85;2.25;;;;;;;8.79;100;94973.02;;;;
2020/02/03 00:35:45;;;;;;;2.85;2.25;;;;;;;8.79;100;94973.02;;;;
2020/02/03 00:36:50;;;;;;;2.85;2.25;;;;;;;8.79;100;94973.02;;;;
2020/02/03 00:37:56;;;;;;;2.85;2.25;;;;;;;8.79;100;94973.02;;;;
2020/02/03 00:38:57;;;;;;;2.85;2.25;;;;;;;8.79;100;94973.02;;;;
2020/02/03 00:44:05;;;;;;;2.85;2.25;;;;;;;8.79;100;94973.02;;;;
2020/02/03 00:45:05;;;;;;;3.1;2.05;;;;;;;8.65;100;94959.08;;;;
2020/02/03 00:46:07;;;;;;;3.1;2.05;;;;;;;8.65;100;94959.08;;;;
2020/02/03 00:52:11;;;;;;;3.1;2.05;;;;;;;8.65;100;94959.08;;;;
2020/02/03 00:54:26;;;;;;;3.1;2.05;;;;;;;8.65;100;94959.08;;;;
2020/02/03 00:55:27;;;;;;;3.55;2.55;;;;;;;8.45;100;94946.04;;;;
2020/02/03 00:56:27;;;;;;;3.55;2.55;;;;;;;8.45;100;94946.04;;;;
2020/02/03 00:57:28;;;;;;;3.55;2.55;;;;;;;8.45;100;94946.04;;;;
2020/02/03 00:58:28;;;;;;;3.55;2.55;;;;;;;8.45;100;94946.04;;;;
2020/02/03 00:59:29;;;;;;;3.55;2.55;;;;;;;8.45;100;94946.04;;;;
2020/02/03 01:00:29;;;;;;;3.55;2.55;;;;;;;8.45;100;94946.04;;;;
2020/02/03 01:01:33;;;;;;;3.55;2.55;;;;;;;8.45;100;94946.04;;;;
2020/02/03 01:02:44;;;;;;;3.55;2.55;;;;;;;8.45;100;94946.04;;;;
2020/02/03 01:03:50;;;;;;;3.55;2.55;;;;;;;8.45;100;94946.04;;;;
2020/02/03 01:04:51;;;;;;;3.55;2.55;;;;;;;8.45;100;94946.04;;;;
2020/02/03 01:05:53;;;;;;;3.55;2.55;;;;;;;8.45;100;94946.04;;;;
2020/02/03 01:06:54;;;;;;;3.95;2.3;;;;;;;8.3;100;94928.58;;;;
2020/02/03 01:08:28;;;;;;;3.95;2.3;;;;;;;8.3;100;94928.58;;;;
2020/02/03 01:09:29;;;;;;;3.95;2.3;;;;;;;8.3;100;94928.58;;;;
2020/02/03 01:10:34;;;;;;;3.95;2.3;;;;;;;8.3;100;94928.58;;;;
2020/02/03 01:11:34;;;;;;;3.95;2.3;;;;;;;8.3;100;94928.58;;;;
2020/02/03 01:12:35;;;;;;;3.95;2.3;;;;;;;8.3;100;94928.58;;;;
2020/02/03 01:13:40;;;;;;;3.95;2.3;;;;;;;8.3;100;94928.58;;;;
2020/02/03 01:14:41;;;;;;;3.95;2.3;;;;;;;8.3;100;94928.58;;;;
2020/02/03 01:15:49;;;;;;;3.95;2.3;;;;;;;8.3;100;94928.58;;;;
2020/02/03 01:16:55;;;;;;;3.65;2.3;;;;;;;8.13;100;94943.17;;;;
2020/02/03 01:17:55;;;;;;;3.65;2.3;;;;;;;8.13;100;94943.17;;;;
2020/02/03 01:19:32;;;;;;;3.65;2.3;;;;;;;8.13;100;94943.17;;;;
2020/02/03 01:20:33;;;;;;;3.65;2.3;;;;;;;8.13;100;94943.17;;;;
2020/02/03 01:21:59;;;;;;;3.65;2.3;;;;;;;8.13;100;94943.17;;;;
2020/02/03 01:22:59;;;;;;;3.65;2.3;;;;;;;8.13;100;94943.17;;;;
2020/02/03 01:24:10;;;;;;;3.65;2.3;;;;;;;8.13;100;94943.17;;;;
2020/02/03 01:25:18;;;;;;;3.65;2.3;;;;;;;8.13;100;94943.17;;;;
2020/02/03 01:26:54;;;;;;;3.65;2.3;;;;;;;8.13;100;94943.17;;;;
2020/02/03 01:28:15;;;;;;;3.65;2;;;;;;;8.06;100;94920.94;;;;
2020/02/03 01:29:15;;;;;;;3.65;2;;;;;;;8.06;100;94920.94;;;;
2020/02/03 01:30:25;;;;;;;3.65;2;;;;;;;8.06;100;94920.94;;;;
2020/02/03 01:31:33;;;;;;;3.65;2;;;;;;;8.06;100;94920.94;;;;
2020/02/03 01:32:39;;;;;;;3.65;2;;;;;;;8.06;100;94920.94;;;;
2020/02/03 01:33:40;;;;;;;3.65;2;;;;;;;8.06;100;94920.94;;;;
2020/02/03 01:34:55;;;;;;;3.65;2;;;;;;;8.06;100;94920.94;;;;
2020/02/03 01:36:11;;;;;;;3.65;2;;;;;;;8.06;100;94920.94;;;;
2020/02/03 01:37:12;;;;;;;3.65;2;;;;;;;8.06;100;94920.94;;;;
2020/02/03 01:38:32;;;;;;;3.9;1.85;;;;;;;7.93;100;94907.3;;;;
2020/02/03 01:39:42;;;;;;;3.9;1.85;;;;;;;7.93;100;94907.3;;;;
2020/02/03 01:40:44;;;;;;;3.9;1.85;;;;;;;7.93;100;94907.3;;;;
2020/02/03 01:41:48;;;;;;;3.9;1.85;;;;;;;7.93;100;94907.3;;;;
2020/02/03 01:42:49;;;;;;;3.9;1.85;;;;;;;7.93;100;94907.3;;;;
2020/02/03 01:43:56;;;;;;;3.9;1.85;;;;;;;7.93;100;94907.3;;;;
2020/02/03 01:45:03;;;;;;;3.9;1.85;;;;;;;7.93;100;94907.3;;;;
2020/02/03 01:46:14;;;;;;;3.9;1.85;;;;;;;7.93;100;94907.3;;;;
2020/02/03 01:47:14;;;;;;;3.9;1.85;;;;;;;7.93;100;94907.3;;;;
2020/02/03 01:48:15;;;;;;;3.9;1.85;;;;;;;7.93;100;94907.3;;;;
2020/02/03 01:49:24;;;;;;;3.6;2;;;;;;;7.87;100;94927.84;;;;
2020/02/03 01:50:28;;;;;;;3.6;2;;;;;;;7.87;100;94927.84;;;;
2020/02/03 01:51:35;;;;;;;3.6;2;;;;;;;7.87;100;94927.84;;;;
2020/02/03 01:52:39;;;;;;;3.6;2;;;;;;;7.87;100;94927.84;;;;
2020/02/03 01:53:44;;;;;;;3.6;2;;;;;;;7.87;100;94927.84;;;;
2020/02/03 01:54:44;;;;;;;3.6;2;;;;;;;7.87;100;94927.84;;;;
2020/02/03 01:55:44;;;;;;;3.6;2;;;;;;;7.87;100;94927.84;;;;
2020/02/03 01:56:49;;;;;;;3.6;2;;;;;;;7.87;100;94927.84;;;;
2020/02/03 01:57:51;;;;;;;3.6;2;;;;;;;7.87;100;94927.84;;;;
2020/02/03 01:58:52;;;;;;;3.6;2;;;;;;;7.87;100;94927.84;;;;
2020/02/03 02:00:01;;;;;;;2.299999;1.95;;;;;;;7.75;100;94929.64;;;;
2020/02/03 02:01:25;;;;;;;2.299999;1.95;;;;;;;7.75;100;94929.64;;;;
2020/02/03 02:02:33;;;;;;;2.299999;1.95;;;;;;;7.75;100;94929.64;;;;
2020/02/03 02:03:56;;;;;;;2.299999;1.95;;;;;;;7.75;100;94929.64;;;;
2020/02/03 02:05:19;;;;;;;2.299999;1.95;;;;;;;7.75;100;94929.64;;;;
2020/02/03 02:11:23;;;;;;;2.6;1.7;;;;;;;7.7;100;94928.67;;;;
2020/02/03 02:12:31;;;;;;;2.6;1.7;;;;;;;7.7;100;94928.67;;;;
2020/02/03 02:14:42;;;;;;;2.6;1.7;;;;;;;7.7;100;94928.67;;;;
2020/02/03 02:15:48;;;;;;;2.6;1.7;;;;;;;7.7;100;94928.67;;;;
2020/02/03 02:16:52;;;;;;;2.6;1.7;;;;;;;7.7;100;94928.67;;;;
2020/02/03 02:17:52;;;;;;;2.6;1.7;;;;;;;7.7;100;94928.67;;;;
2020/02/03 02:18:53;;;;;;;2.6;1.7;;;;;;;7.7;100;94928.67;;;;
2020/02/03 02:20:09;;;;;;;2.6;1.7;;;;;;;7.7;100;94928.67;;;;
2020/02/03 02:21:14;;;;;;;3.45;1.65;;;;;;;7.58;100;94944.34;;;;
2020/02/03 02:22:17;;;;;;;3.45;1.65;;;;;;;7.58;100;94944.34;;;;
2020/02/03 02:23:28;;;;;;;3.45;1.65;;;;;;;7.58;100;94944.34;;;;
2020/02/03 02:25:00;;;;;;;3.45;1.65;;;;;;;7.58;100;94944.34;;;;
2020/02/03 02:27:11;;;;;;;3.45;1.65;;;;;;;7.58;100;94944.34;;;;
2020/02/03 02:28:39;;;;;;;3.45;1.65;;;;;;;7.58;100;94944.34;;;;
2020/02/03 02:29:53;;;;;;;3.45;1.65;;;;;;;7.58;100;94944.34;;;;
2020/02/03 02:31:20;;;;;;;2.55;1.45;;;;;;;7.47;100;94953.56;;;;
2020/02/03 02:32:27;;;;;;;2.55;1.45;;;;;;;7.47;100;94953.56;;;;
2020/02/03 02:33:49;;;;;;;2.55;1.45;;;;;;;7.47;100;94953.56;;;;
2020/02/03 02:35:11;;;;;;;2.55;1.45;;;;;;;7.47;100;94953.56;;;;
2020/02/03 02:36:12;;;;;;;2.55;1.45;;;;;;;7.47;100;94953.56;;;;
2020/02/03 02:37:12;;;;;;;2.55;1.45;;;;;;;7.47;100;94953.56;;;;
2020/02/03 02:38:34;;;;;;;2.55;1.45;;;;;;;7.47;100;94953.56;;;;
2020/02/03 02:41:00;;;;;;;2.55;1.45;;;;;;;7.47;100;94953.56;;;;
2020/02/03 02:42:08;;;;;;;4.299999;1.9;;;;;;;7.3;100;95024.63;;;;
2020/02/03 02:43:09;;;;;;;4.299999;1.9;;;;;;;7.3;100;95024.63;;;;
2020/02/03 02:44:14;;;;;;;4.299999;1.9;;;;;;;7.3;100;95024.63;;;;
2020/02/03 02:45:16;;;;;;;4.299999;1.9;;;;;;;7.3;100;95024.63;;;;
2020/02/03 02:47:35;;;;;;;4.299999;1.9;;;;;;;7.3;100;95024.63;;;;
2020/02/03 02:48:39;;;;;;;4.299999;1.9;;;;;;;7.3;100;95024.63;;;;
2020/02/03 02:49:45;;;;;;;4.299999;1.9;;;;;;;7.3;100;95024.63;;;;
2020/02/03 02:50:58;;;;;;;4.299999;1.9;;;;;;;7.3;100;95024.63;;;;
2020/02/03 02:52:26;;;;;;;2.75;1.55;;;;;;;7.22;100;95011.49;;;;
2020/02/03 02:53:26;;;;;;;2.75;1.55;;;;;;;7.22;100;95011.49;;;;
2020/02/03 02:58:09;;;;;;;2.75;1.55;;;;;;;7.22;100;95011.49;;;;
2020/02/03 02:59:10;;;;;;;2.75;1.55;;;;;;;7.22;100;95011.49;;;;
2020/02/03 03:00:11;;;;;;;2.75;1.55;;;;;;;7.22;100;95011.49;;;;
2020/02/03 03:01:36;;;;;;;2.75;1.55;;;;;;;7.22;100;95011.49;;;;
2020/02/03 03:02:46;;;;;;;3;1.4;;;;;;;7.09;100;95030;;;;
2020/02/03 03:03:54;;;;;;;3;1.4;;;;;;;7.09;100;95030;;;;
2020/02/03 03:04:54;;;;;;;3;1.4;;;;;;;7.09;100;95030;;;;
2020/02/03 03:05:54;;;;;;;3;1.4;;;;;;;7.09;100;95030;;;;
2020/02/03 03:06:55;;;;;;;3;1.4;;;;;;;7.09;100;95030;;;;
2020/02/03 03:07:57;;;;;;;3;1.4;;;;;;;7.09;100;95030;;;;
2020/02/03 03:08:57;;;;;;;3;1.4;;;;;;;7.09;100;95030;;;;
2020/02/03 03:10:10;;;;;;;3;1.4;;;;;;;7.09;100;95030;;;;
2020/02/03 03:11:14;;;;;;;3;1.4;;;;;;;7.09;100;95030;;;;
2020/02/03 03:12:19;;;;;;;3;1.4;;;;;;;7.09;100;95030;;;;
2020/02/03 03:13:21;;;;;;;2.05;1.5;;;;;;;7.07;100;95027.51;;;;
2020/02/03 03:14:25;;;;;;;2.05;1.5;;;;;;;7.07;100;95027.51;;;;
2020/02/03 03:15:38;;;;;;;2.05;1.5;;;;;;;7.07;100;95027.51;;;;
2020/02/03 03:16:48;;;;;;;2.05;1.5;;;;;;;7.07;100;95027.51;;;;
2020/02/03 03:17:49;;;;;;;2.05;1.5;;;;;;;7.07;100;95027.51;;;;
2020/02/03 03:18:50;;;;;;;2.05;1.5;;;;;;;7.07;100;95027.51;;;;
2020/02/03 03:20:26;;;;;;;2.05;1.5;;;;;;;7.07;100;95027.51;;;;
2020/02/03 03:21:26;;;;;;;2.05;1.5;;;;;;;7.07;100;95027.51;;;;
2020/02/03 03:22:27;;;;;;;2.05;1.5;;;;;;;7.07;100;95027.51;;;;
2020/02/03 03:23:30;;;;;;;2.05;1.5;;;;;;;7.07;100;95027.51;;;;
2020/02/03 03:24:31;;;;;;;3;1.6;;;;;;;7.04;100;95046.34;;;;
2020/02/03 03:25:32;;;;;;;3;1.6;;;;;;;7.04;100;95046.34;;;;
2020/02/03 03:26:49;;;;;;;3;1.6;;;;;;;7.04;100;95046.34;;;;
2020/02/03 03:27:50;;;;;;;3;1.6;;;;;;;7.04;100;95046.34;;;;
2020/02/03 03:28:50;;;;;;;3;1.6;;;;;;;7.04;100;95046.34;;;;
2020/02/03 03:29:51;;;;;;;3;1.6;;;;;;;7.04;100;95046.34;;;;
2020/02/03 03:30:53;;;;;;;3;1.6;;;;;;;7.04;100;95046.34;;;;
2020/02/03 03:31:56;;;;;;;3;1.6;;;;;;;7.04;100;95046.34;;;;
2020/02/03 03:32:58;;;;;;;3;1.6;;;;;;;7.04;100;95046.34;;;;
2020/02/03 03:34:01;;;;;;;3;1.6;;;;;;;7.04;100;95046.34;;;;
2020/02/03 03:35:02;;;;;;;2.9;1.9;;;;;;;7.08;100;95065;;;;
2020/02/03 03:36:03;;;;;;;2.9;1.9;;;;;;;7.08;100;95065;;;;
2020/02/03 03:37:03;;;;;;;2.9;1.9;;;;;;;7.08;100;95065;;;;
2020/02/03 03:38:04;;;;;;;2.9;1.9;;;;;;;7.08;100;95065;;;;
2020/02/03 03:39:06;;;;;;;2.9;1.9;;;;;;;7.08;100;95065;;;;
2020/02/03 03:40:22;;;;;;;2.9;1.9;;;;;;;7.08;100;95065;;;;
2020/02/03 03:41:25;;;;;;;2.9;1.9;;;;;;;7.08;100;95065;;;;
2020/02/03 03:42:30;;;;;;;2.9;1.9;;;;;;;7.08;100;95065;;;;
2020/02/03 03:43:34;;;;;;;2.9;1.9;;;;;;;7.08;100;95065;;;;
2020/02/03 03:44:39;;;;;;;2.9;1.9;;;;;;;7.08;100;95065;;;;
2020/02/03 03:46:52;;;;;;;3.55;2.25;;;;;;;7.05;100;95063.56;;;;
2020/02/03 03:47:58;;;;;;;3.55;2.25;;;;;;;7.05;100;95063.56;;;;
2020/02/03 03:49:05;;;;;;;3.55;2.25;;;;;;;7.05;100;95063.56;;;;
2020/02/03 03:50:12;;;;;;;3.55;2.25;;;;;;;7.05;100;95063.56;;;;
2020/02/03 03:51:14;;;;;;;3.55;2.25;;;;;;;7.05;100;95063.56;;;;
2020/02/03 03:52:15;;;;;;;3.55;2.25;;;;;;;7.05;100;95063.56;;;;
2020/02/03 03:53:16;;;;;;;3.55;2.25;;;;;;;7.05;100;95063.56;;;;
2020/02/03 03:54:16;;;;;;;3.55;2.25;;;;;;;7.05;100;95063.56;;;;
2020/02/03 03:55:30;;;;;;;3.55;2.25;;;;;;;7.05;100;95063.56;;;;
2020/02/03 03:56:30;;;;;;;3.2;2.3;;;;;;;7.11;100;95083.34;;;;
2020/02/03 03:57:31;;;;;;;3.2;2.3;;;;;;;7.11;100;95083.34;;;;
2020/02/03 03:58:31;;;;;;;3.2;2.3;;;;;;;7.11;100;95083.34;;;;
2020/02/03 03:59:32;;;;;;;3.2;2.3;;;;;;;7.11;100;95083.34;;;;
2020/02/03 04:00:32;;;;;;;3.2;2.3;;;;;;;7.11;100;95083.34;;;;
2020/02/03 04:01:37;;;;;;;3.2;2.3;;;;;;;7.11;100;95083.34;;;;
2020/02/03 04:02:37;;;;;;;3.2;2.3;;;;;;;7.11;100;95083.34;;;;
2020/02/03 04:03:38;;;;;;;3.2;2.3;;;;;;;7.11;100;95083.34;;;;
2020/02/03 04:04:38;;;;;;;3.2;2.3;;;;;;;7.11;100;95083.34;;;;
2020/02/03 04:05:39;;;;;;;3.2;2.3;;;;;;;7.11;100;95083.34;;;;
2020/02/03 04:06:39;;;;;;;3.400001;2.45;;;;;;;7.11;100;95077.56;;;;
2020/02/03 04:07:42;;;;;;;3.400001;2.45;;;;;;;7.11;100;95077.56;;;;
2020/02/03 04:08:57;;;;;;;3.400001;2.45;;;;;;;7.11;100;95077.56;;;;
2020/02/03 04:09:58;;;;;;;3.400001;2.45;;;;;;;7.11;100;95077.56;;;;
2020/02/03 04:10:58;;;;;;;3.400001;2.45;;;;;;;7.11;100;95077.56;;;;
2020/02/03 04:11:59;;;;;;;3.400001;2.45;;;;;;;7.11;100;95077.56;;;;
2020/02/03 04:13:00;;;;;;;3.400001;2.45;;;;;;;7.11;100;95077.56;;;;
2020/02/03 04:14:00;;;;;;;3.400001;2.45;;;;;;;7.11;100;95077.56;;;;
2020/02/03 04:15:01;;;;;;;3.400001;2.45;;;;;;;7.11;100;95077.56;;;;
2020/02/03 04:16:01;;;;;;;3.400001;2.45;;;;;;;7.11;100;95077.56;;;;
2020/02/03 04:17:02;;;;;;;2.55;1.6;;;;;;;7.19;100;95081.23;;;;
2020/02/03 04:18:03;;;;;;;2.55;1.6;;;;;;;7.19;100;95081.23;;;;
2020/02/03 04:19:04;;;;;;;2.55;1.6;;;;;;;7.19;100;95081.23;;;;
2020/02/03 04:20:04;;;;;;;2.55;1.6;;;;;;;7.19;100;95081.23;;;;
2020/02/03 04:21:04;;;;;;;2.55;1.6;;;;;;;7.19;100;95081.23;;;;
2020/02/03 04:22:05;;;;;;;2.55;1.6;;;;;;;7.19;100;95081.23;;;;
2020/02/03 04:23:06;;;;;;;2.55;1.6;;;;;;;7.19;100;95081.23;;;;
2020/02/03 04:24:07;;;;;;;2.55;1.6;;;;;;;7.19;100;95081.23;;;;
2020/02/03 04:25:08;;;;;;;2.55;1.6;;;;;;;7.19;100;95081.23;;;;
2020/02/03 04:26:08;;;;;;;2.55;1.6;;;;;;;7.19;100;95081.23;;;;
2020/02/03 04:27:09;;;;;;;2.55;1.6;;;;;;;7.19;100;95081.23;;;;
2020/02/03 04:28:09;;;;;;;1.55;1.35;;;;;;;7.23;100;95065.5;;;;
2020/02/03 04:29:11;;;;;;;1.55;1.35;;;;;;;7.23;100;95065.5;;;;
2020/02/03 04:30:11;;;;;;;1.55;1.35;;;;;;;7.23;100;95065.5;;;;
2020/02/03 04:31:12;;;;;;;1.55;1.35;;;;;;;7.23;100;95065.5;;;;
2020/02/03 04:32:13;;;;;;;1.55;1.35;;;;;;;7.23;100;95065.5;;;;
2020/02/03 04:33:13;;;;;;;1.55;1.35;;;;;;;7.23;100;95065.5;;;;
2020/02/03 04:34:14;;;;;;;1.55;1.35;;;;;;;7.23;100;95065.5;;;;
2020/02/03 04:35:14;;;;;;;1.55;1.35;;;;;;;7.23;100;95065.5;;;;
2020/02/03 04:36:18;;;;;;;1.55;1.35;;;;;;;7.23;100;95065.5;;;;
2020/02/03 04:37:19;;;;;;;1.55;1.35;;;;;;;7.23;100;95065.5;;;;
2020/02/03 04:38:20;;;;;;;1.5;1;;;;;;;7.35;100;95048.53;;;;
2020/02/03 04:39:20;;;;;;;1.5;1;;;;;;;7.35;100;95048.53;;;;
2020/02/03 04:40:21;;;;;;;1.5;1;;;;;;;7.35;100;95048.53;;;;
2020/02/03 04:41:22;;;;;;;1.5;1;;;;;;;7.35;100;95048.53;;;;
2020/02/03 04:42:22;;;;;;;1.5;1;;;;;;;7.35;100;95048.53;;;;
2020/02/03 04:43:23;;;;;;;1.5;1;;;;;;;7.35;100;95048.53;;;;
2020/02/03 04:44:23;;;;;;;1.5;1;;;;;;;7.35;100;95048.53;;;;
2020/02/03 04:45:24;;;;;;;1.5;1;;;;;;;7.35;100;95048.53;;;;
2020/02/03 04:46:24;;;;;;;1.5;1;;;;;;;7.35;100;95048.53;;;;
2020/02/03 04:47:25;;;;;;;1.5;1;;;;;;;7.35;100;95048.53;;;;
2020/02/03 04:48:26;;;;;;;1.5;1;;;;;;;7.35;100;95048.53;;;;
2020/02/03 04:49:26;;;;;;;1;0.9;;;;;;;7.39;100;95030.81;;;;
2020/02/03 04:50:27;;;;;;;1;0.9;;;;;;;7.39;100;95030.81;;;;
2020/02/03 04:51:27;;;;;;;1;0.9;;;;;;;7.39;100;95030.81;;;;
2020/02/03 04:52:28;;;;;;;1;0.9;;;;;;;7.39;100;95030.81;;;;
2020/02/03 04:53:28;;;;;;;1;0.9;;;;;;;7.39;100;95030.81;;;;
2020/02/03 04:54:29;;;;;;;1;0.9;;;;;;;7.39;100;95030.81;;;;
2020/02/03 04:55:29;;;;;;;1;0.9;;;;;;;7.39;100;95030.81;;;;
2020/02/03 04:56:30;;;;;;;1;0.9;;;;;;;7.39;100;95030.81;;;;
2020/02/03 04:57:31;;;;;;;1;0.9;;;;;;;7.39;100;95030.81;;;;
2020/02/03 04:58:31;;;;;;;1;0.9;;;;;;;7.39;100;95030.81;;;;
2020/02/03 04:59:32;;;;;;;2;1.1;;;;;;;7.49;100;95022.66;;;;
2020/02/03 05:00:32;;;;;;;2;1.1;;;;;;;7.49;100;95022.66;;;;
2020/02/03 05:01:36;;;;;;;2;1.1;;;;;;;7.49;100;95022.66;;;;
2020/02/03 05:02:36;;;;;;;2;1.1;;;;;;;7.49;100;95022.66;;;;
2020/02/03 05:03:37;;;;;;;2;1.1;;;;;;;7.49;100;95022.66;;;;
2020/02/03 05:04:38;;;;;;;2;1.1;;;;;;;7.49;100;95022.66;;;;
2020/02/03 05:05:38;;;;;;;2;1.1;;;;;;;7.49;100;95022.66;;;;
2020/02/03 05:06:40;;;;;;;2;1.1;;;;;;;7.49;100;95022.66;;;;
2020/02/03 05:07:40;;;;;;;2;1.1;;;;;;;7.49;100;95022.66;;;;
2020/02/03 05:08:41;;;;;;;2;1.1;;;;;;;7.49;100;95022.66;;;;
2020/02/03 05:09:41;;;;;;;2;1.1;;;;;;;7.49;100;95022.66;;;;
2020/02/03 05:10:43;;;;;;;1.2;1.05;;;;;;;7.51;100;95038.14;;;;
2020/02/03 05:11:43;;;;;;;1.2;1.05;;;;;;;7.51;100;95038.14;;;;
2020/02/03 05:12:44;;;;;;;1.2;1.05;;;;;;;7.51;100;95038.14;;;;
2020/02/03 05:13:44;;;;;;;1.2;1.05;;;;;;;7.51;100;95038.14;;;;
2020/02/03 05:14:45;;;;;;;1.2;1.05;;;;;;;7.51;100;95038.14;;;;
2020/02/03 05:15:46;;;;;;;1.2;1.05;;;;;;;7.51;100;95038.14;;;;
2020/02/03 05:16:47;;;;;;;1.2;1.05;;;;;;;7.51;100;95038.14;;;;
2020/02/03 05:17:48;;;;;;;1.2;1.05;;;;;;;7.51;100;95038.14;;;;
2020/02/03 05:19:24;;;;;;;1.2;1.05;;;;;;;7.51;100;95038.14;;;;
2020/02/03 05:20:25;;;;;;;1.2;1.05;;;;;;;7.51;100;95038.14;;;;
2020/02/03 05:21:26;;;;;;;1.6;1.1;;;;;;;7.56;100;95022.58;;;;
2020/02/03 05:22:26;;;;;;;1.6;1.1;;;;;;;7.56;100;95022.58;;;;
2020/02/03 05:23:27;;;;;;;1.6;1.1;;;;;;;7.56;100;95022.58;;;;
2020/02/03 05:24:28;;;;;;;1.6;1.1;;;;;;;7.56;100;95022.58;;;;
2020/02/03 05:25:29;;;;;;;1.6;1.1;;;;;;;7.56;100;95022.58;;;;
2020/02/03 05:26:29;;;;;;;1.6;1.1;;;;;;;7.56;100;95022.58;;;;
2020/02/03 05:27:30;;;;;;;1.6;1.1;;;;;;;7.56;100;95022.58;;;;
2020/02/03 05:28:31;;;;;;;1.6;1.1;;;;;;;7.56;100;95022.58;;;;
2020/02/03 05:29:31;;;;;;;1.6;1.1;;;;;;;7.56;100;95022.58;;;;
2020/02/03 05:30:32;;;;;;;1.6;1.1;;;;;;;7.56;100;95022.58;;;;
2020/02/03 05:31:32;;;;;;;2.7;1.2;;;;;;;7.51;100;95020.17;;;;
2020/02/03 05:32:33;;;;;;;2.7;1.2;;;;;;;7.51;100;95020.17;;;;
2020/02/03 05:33:34;;;;;;;2.7;1.2;;;;;;;7.51;100;95020.17;;;;
2020/02/03 05:34:34;;;;;;;2.7;1.2;;;;;;;7.51;100;95020.17;;;;
2020/02/03 05:35:34;;;;;;;2.7;1.2;;;;;;;7.51;100;95020.17;;;;
2020/02/03 05:36:35;;;;;;;2.7;1.2;;;;;;;7.51;100;95020.17;;;;
2020/02/03 05:37:35;;;;;;;2.7;1.2;;;;;;;7.51;100;95020.17;;;;
2020/02/03 05:38:37;;;;;;;2.7;1.2;;;;;;;7.51;100;95020.17;;;;
2020/02/03 05:39:37;;;;;;;2.7;1.2;;;;;;;7.51;100;95020.17;;;;
2020/02/03 05:40:38;;;;;;;2.7;1.2;;;;;;;7.51;100;95020.17;;;;
2020/02/03 05:41:39;;;;;;;2.7;1.2;;;;;;;7.51;100;95020.17;;;;
2020/02/03 05:42:40;;;;;;;1.65;1.3;;;;;;;7.54;100;95046.98;;;;
2020/02/03 05:43:42;;;;;;;1.65;1.3;;;;;;;7.54;100;95046.98;;;;
2020/02/03 05:44:42;;;;;;;1.65;1.3;;;;;;;7.54;100;95046.98;;;;
2020/02/03 05:45:43;;;;;;;1.65;1.3;;;;;;;7.54;100;95046.98;;;;
2020/02/03 05:46:44;;;;;;;1.65;1.3;;;;;;;7.54;100;95046.98;;;;
2020/02/03 05:47:45;;;;;;;1.65;1.3;;;;;;;7.54;100;95046.98;;;;
2020/02/03 05:48:45;;;;;;;1.65;1.3;;;;;;;7.54;100;95046.98;;;;
2020/02/03 05:49:46;;;;;;;1.65;1.3;;;;;;;7.54;100;95046.98;;;;
2020/02/03 05:50:46;;;;;;;1.65;1.3;;;;;;;7.54;100;95046.98;;;;
2020/02/03 05:51:47;;;;;;;1.65;1.3;;;;;;;7.54;100;95046.98;;;;
2020/02/03 05:52:47;;;;;;;1.5;1.4;;;;;;;7.5;100;95045.78;;;;
2020/02/03 05:53:51;;;;;;;1.5;1.4;;;;;;;7.5;100;95045.78;;;;
2020/02/03 05:54:52;;;;;;;1.5;1.4;;;;;;;7.5;100;95045.78;;;;
2020/02/03 05:55:53;;;;;;;1.5;1.4;;;;;;;7.5;100;95045.78;;;;
2020/02/03 05:56:53;;;;;;;1.5;1.4;;;;;;;7.5;100;95045.78;;;;
2020/02/03 05:57:53;;;;;;;1.5;1.4;;;;;;;7.5;100;95045.78;;;;
2020/02/03 05:58:54;;;;;;;1.5;1.4;;;;;;;7.5;100;95045.78;;;;
2020/02/03 05:59:54;;;;;;;1.5;1.4;;;;;;;7.5;100;95045.78;;;;
2020/02/03 06:00:55;;;;;;;1.5;1.4;;;;;;;7.5;100;95045.78;;;;
2020/02/03 06:01:56;;;;;;;1.5;1.4;;;;;;;7.5;100;95045.78;;;;
2020/02/03 06:02:56;;;;;;;1.5;1.4;;;;;;;7.5;100;95045.78;;;;
2020/02/03 06:03:56;;;;;;;2.4;2.1;;;;;;;7.52;100;95058.06;;;;
2020/02/03 06:04:57;;;;;;;2.4;2.1;;;;;;;7.52;100;95058.06;;;;
2020/02/03 06:05:57;;;;;;;2.4;2.1;;;;;;;7.52;100;95058.06;;;;
2020/02/03 06:06:58;;;;;;;2.4;2.1;;;;;;;7.52;100;95058.06;;;;
2020/02/03 06:07:58;;;;;;;2.4;2.1;;;;;;;7.52;100;95058.06;;;;
2020/02/03 06:08:59;;;;;;;2.4;2.1;;;;;;;7.52;100;95058.06;;;;
2020/02/03 06:09:59;;;;;;;2.4;2.1;;;;;;;7.52;100;95058.06;;;;
2020/02/03 06:11:00;;;;;;;2.4;2.1;;;;;;;7.52;100;95058.06;;;;
2020/02/03 06:12:00;;;;;;;2.4;2.1;;;;;;;7.52;100;95058.06;;;;
2020/02/03 06:13:00;;;;;;;2.4;2.1;;;;;;;7.52;100;95058.06;;;;
2020/02/03 06:14:01;;;;;;;3.6;2.75;;;;;;;7.48;100;95066.67;;;;
2020/02/03 06:15:01;;;;;;;3.6;2.75;;;;;;;7.48;100;95066.67;;;;
2020/02/03 06:16:02;;;;;;;3.6;2.75;;;;;;;7.48;100;95066.67;;;;
2020/02/03 06:17:03;;;;;;;3.6;2.75;;;;;;;7.48;100;95066.67;;;;
2020/02/03 06:18:03;;;;;;;3.6;2.75;;;;;;;7.48;100;95066.67;;;;
2020/02/03 06:19:04;;;;;;;3.6;2.75;;;;;;;7.48;100;95066.67;;;;
2020/02/03 06:20:04;;;;;;;3.6;2.75;;;;;;;7.48;100;95066.67;;;;
2020/02/03 06:21:05;;;;;;;3.6;2.75;;;;;;;7.48;100;95066.67;;;;
2020/02/03 06:22:05;;;;;;;3.6;2.75;;;;;;;7.48;100;95066.67;;;;
2020/02/03 06:23:06;;;;;;;3.6;2.75;;;;;;;7.48;100;95066.67;;;;
2020/02/03 06:24:06;;;;;;;3.6;2.75;;;;;;;7.48;100;95066.67;;;;
2020/02/03 06:25:07;;;;;;;2.75;2.35;;;;;;;7.5;100;95085.69;;;;
2020/02/03 06:26:07;;;;;;;2.75;2.35;;;;;;;7.5;100;95085.69;;;;
2020/02/03 06:27:08;;;;;;;2.75;2.35;;;;;;;7.5;100;95085.69;;;;
2020/02/03 06:28:08;;;;;;;2.75;2.35;;;;;;;7.5;100;95085.69;;;;
2020/02/03 06:29:09;;;;;;;2.75;2.35;;;;;;;7.5;100;95085.69;;;;
2020/02/03 06:30:09;;;;;;;2.75;2.35;;;;;;;7.5;100;95085.69;;;;
2020/02/03 06:31:10;;;;;;;2.75;2.35;;;;;;;7.5;100;95085.69;;;;
2020/02/03 06:32:10;;;;;;;2.75;2.35;;;;;;;7.5;100;95085.69;;;;
2020/02/03 06:33:10;;;;;;;2.75;2.35;;;;;;;7.5;100;95085.69;;;;
2020/02/03 06:34:11;;;;;;;2.75;2.35;;;;;;;7.5;100;95085.69;;;;
2020/02/03 06:35:11;;;;;;;2.1;1.7;;;;;;;7.45;100;95096.67;;;;
2020/02/03 06:36:12;;;;;;;2.1;1.7;;;;;;;7.45;100;95096.67;;;;
2020/02/03 06:37:12;;;;;;;2.1;1.7;;;;;;;7.45;100;95096.67;;;;
2020/02/03 06:38:29;;;;;;;2.1;1.7;;;;;;;7.45;100;95096.67;;;;
2020/02/03 06:39:29;;;;;;;2.1;1.7;;;;;;;7.45;100;95096.67;;;;
2020/02/03 06:40:30;;;;;;;2.1;1.7;;;;;;;7.45;100;95096.67;;;;
2020/02/03 06:41:30;;;;;;;2.1;1.7;;;;;;;7.45;100;95096.67;;;;
2020/02/03 06:42:30;;;;;;;2.1;1.7;;;;;;;7.45;100;95096.67;;;;
2020/02/03 06:43:31;;;;;;;2.1;1.7;;;;;;;7.45;100;95096.67;;;;
2020/02/03 06:44:31;;;;;;;2.1;1.7;;;;;;;7.45;100;95096.67;;;;
2020/02/03 06:45:32;;;;;;;3.75;2;;;;;;;7.46;100;95127.04;;;;
2020/02/03 06:46:32;;;;;;;3.75;2;;;;;;;7.46;100;95127.04;;;;
2020/02/03 06:47:33;;;;;;;3.75;2;;;;;;;7.46;100;95127.04;;;;
2020/02/03 06:48:33;;;;;;;3.75;2;;;;;;;7.46;100;95127.04;;;;
2020/02/03 06:49:34;;;;;;;3.75;2;;;;;;;7.46;100;95127.04;;;;
2020/02/03 06:50:34;;;;;;;3.75;2;;;;;;;7.46;100;95127.04;;;;
2020/02/03 06:51:35;;;;;;;3.75;2;;;;;;;7.46;100;95127.04;;;;
2020/02/03 06:52:35;;;;;;;3.75;2;;;;;;;7.46;100;95127.04;;;;
2020/02/03 06:53:36;;;;;;;3.75;2;;;;;;;7.46;100;95127.04;;;;
2020/02/03 06:54:36;;;;;;;3.75;2;;;;;;;7.46;100;95127.04;;;;
2020/02/03 06:55:37;;;;;;;3.75;2;;;;;;;7.46;100;95127.04;;;;
2020/02/03 06:57:47;;;;;;;2.5;2;;;;;;;7.41;100;95144.76;;;;
2020/02/03 06:58:49;;;;;;;2.5;2;;;;;;;7.41;100;95144.76;;;;
2020/02/03 06:59:50;;;;;;;2.5;2;;;;;;;7.41;100;95144.76;;;;
2020/02/03 07:00:53;;;;;;;2.5;2;;;;;;;7.41;100;95144.76;;;;
2020/02/03 07:01:54;;;;;;;2.5;2;;;;;;;7.41;100;95144.76;;;;
2020/02/03 07:02:54;;;;;;;2.5;2;;;;;;;7.41;100;95144.76;;;;
2020/02/03 07:03:54;;;;;;;2.5;2;;;;;;;7.41;100;95144.76;;;;
2020/02/03 07:04:55;;;;;;;2.5;2;;;;;;;7.41;100;95144.76;;;;
2020/02/03 07:05:55;;;;;;;2.5;2;;;;;;;7.41;100;95144.76;;;;
2020/02/03 07:06:56;;;;;;;2.3;1.6;;;;;;;7.41;100;95158.99;;;;
2020/02/03 07:07:57;;;;;;;2.3;1.6;;;;;;;7.41;100;95158.99;;;;
2020/02/03 07:08:57;;;;;;;2.3;1.6;;;;;;;7.41;100;95158.99;;;;
2020/02/03 07:09:57;;;;;;;2.3;1.6;;;;;;;7.41;100;95158.99;;;;
2020/02/03 07:10:58;;;;;;;2.3;1.6;;;;;;;7.41;100;95158.99;;;;
2020/02/03 07:11:58;;;;;;;2.3;1.6;;;;;;;7.41;100;95158.99;;;;
2020/02/03 07:12:59;;;;;;;2.3;1.6;;;;;;;7.41;100;95158.99;;;;
2020/02/03 07:13:59;;;;;;;2.3;1.6;;;;;;;7.41;100;95158.99;;;;
2020/02/03 07:15:00;;;;;;;2.3;1.6;;;;;;;7.41;100;95158.99;;;;
2020/02/03 07:16:00;;;;;;;2.3;1.6;;;;;;;7.41;100;95158.99;;;;